sensor_id;sensor_type;location;lat;lon;timestamp;temperature;humidity
42833;DHT22;64089;51.478;5.692;2023-04-02T00:08:57;7.20;99.90
42833;DHT22;64089;51.478;5.692;2023-04-02T00:11:36;7.30;99.90
42833;DHT22;64089;51.478;5.692;2023-04-02T00:14:20;7.30;99.90
42833;DHT22;64089;51.478;5.692;2023-04-02T00:16:47;7.30;99.90
42833;DHT22;64089;51.478;5.692;2023-04-02T00:19:22;7.30;99.90
42833;DHT22;64089;51.478;5.692;2023-04-02T00:21:50;7.30;99.90
42833;DHT22;64089;51.478;5.692;2023-04-02T00:24:19;7.30;99.90
42833;DHT22;64089;51.478;5.692;2023-04-02T00:26:52;7.20;99.90
42833;DHT22;64089;51.478;5.692;2023-04-02T00:29:18;7.30;99.90
42833;DHT22;64089;51.478;5.692;2023-04-02T00:31:47;7.20;99.90
42833;DHT22;64089;51.478;5.692;2023-04-02T00:34:27;7.30;99.90
42833;DHT22;64089;51.478;5.692;2023-04-02T00:36:54;7.20;99.90
42833;DHT22;64089;51.478;5.692;2023-04-02T00:39:29;7.20;99.90
42833;DHT22;64089;51.478;5.692;2023-04-02T00:41:57;7.20;99.90
42833;DHT22;64089;51.478;5.692;2023-04-02T00:44:40;7.20;99.90
42833;DHT22;64089;51.478;5.692;2023-04-02T00:47:23;7.20;99.90
42833;DHT22;64089;51.478;5.692;2023-04-02T00:49:57;7.20;99.90
42833;DHT22;64089;51.478;5.692;2023-04-02T00:52:27;7.20;99.90
42833;DHT22;64089;51.478;5.692;2023-04-02T00:55:05;7.20;99.90
42833;DHT22;64089;51.478;5.692;2023-04-02T00:57:32;7.10;99.90
42833;DHT22;64089;51.478;5.692;2023-04-02T01:00:01;7.10;99.90
42833;DHT22;64089;51.478;5.692;2023-04-02T01:02:33;7.10;99.90
42833;DHT22;64089;51.478;5.692;2023-04-02T01:21:34;6.90;99.90
42833;DHT22;64089;51.478;5.692;2023-04-02T01:24:07;6.90;99.90
42833;DHT22;64089;51.478;5.692;2023-04-02T01:29:27;6.80;99.90
42833;DHT22;64089;51.478;5.692;2023-04-02T01:31:56;6.80;99.90
42833;DHT22;64089;51.478;5.692;2023-04-02T01:34:24;6.80;99.90
42833;DHT22;64089;51.478;5.692;2023-04-02T01:37:12;6.80;99.90
42833;DHT22;64089;51.478;5.692;2023-04-02T01:45:03;6.80;99.90
42833;DHT22;64089;51.478;5.692;2023-04-02T01:47:31;6.80;99.90
42833;DHT22;64089;51.478;5.692;2023-04-02T01:50:22;6.80;99.90
42833;DHT22;64089;51.478;5.692;2023-04-02T01:52:51;6.80;99.90
42833;DHT22;64089;51.478;5.692;2023-04-02T01:57:56;6.70;99.90
42833;DHT22;64089;51.478;5.692;2023-04-02T02:00:23;6.70;99.90
42833;DHT22;64089;51.478;5.692;2023-04-02T02:02:50;6.70;99.90
42833;DHT22;64089;51.478;5.692;2023-04-02T02:05:20;6.70;99.90
42833;DHT22;64089;51.478;5.692;2023-04-02T02:07:48;6.70;99.90
42833;DHT22;64089;51.478;5.692;2023-04-02T02:10:19;6.70;99.90
42833;DHT22;64089;51.478;5.692;2023-04-02T02:12:46;6.70;99.90
42833;DHT22;64089;51.478;5.692;2023-04-02T02:15:18;6.70;99.90
42833;DHT22;64089;51.478;5.692;2023-04-02T02:17:44;6.70;99.90
42833;DHT22;64089;51.478;5.692;2023-04-02T02:20:11;6.60;99.90
42833;DHT22;64089;51.478;5.692;2023-04-02T02:22:40;6.60;99.90
42833;DHT22;64089;51.478;5.692;2023-04-02T02:25:17;6.60;99.90
42833;DHT22;64089;51.478;5.692;2023-04-02T02:30:37;6.50;99.90
42833;DHT22;64089;51.478;5.692;2023-04-02T02:41:23;6.50;99.90
42833;DHT22;64089;51.478;5.692;2023-04-02T02:44:01;6.40;99.90
42833;DHT22;64089;51.478;5.692;2023-04-02T02:46:30;6.40;99.90
42833;DHT22;64089;51.478;5.692;2023-04-02T02:48:57;6.40;99.90
42833;DHT22;64089;51.478;5.692;2023-04-02T02:51:39;6.40;99.90
42833;DHT22;64089;51.478;5.692;2023-04-02T02:54:06;6.40;99.90
42833;DHT22;64089;51.478;5.692;2023-04-02T02:56:34;6.40;99.90
42833;DHT22;64089;51.478;5.692;2023-04-02T02:59:04;6.40;99.90
42833;DHT22;64089;51.478;5.692;2023-04-02T03:01:32;6.40;99.90
42833;DHT22;64089;51.478;5.692;2023-04-02T03:03:58;6.40;99.90
42833;DHT22;64089;51.478;5.692;2023-04-02T03:06:25;6.40;99.90
42833;DHT22;64089;51.478;5.692;2023-04-02T03:17:41;6.40;99.90
42833;DHT22;64089;51.478;5.692;2023-04-02T03:20:36;6.30;99.90
42833;DHT22;64089;51.478;5.692;2023-04-02T03:26:17;6.30;99.90
42833;DHT22;64089;51.478;5.692;2023-04-02T03:29:53;6.30;99.90
42833;DHT22;64089;51.478;5.692;2023-04-02T03:31:53;6.30;99.90
42833;DHT22;64089;51.478;5.692;2023-04-02T03:34:21;6.30;99.90
42833;DHT22;64089;51.478;5.692;2023-04-02T03:47:18;6.10;99.90
42833;DHT22;64089;51.478;5.692;2023-04-02T03:49:55;6.10;99.90
42833;DHT22;64089;51.478;5.692;2023-04-02T03:52:25;6.10;99.90
42833;DHT22;64089;51.478;5.692;2023-04-02T03:54:53;6.10;99.90
42833;DHT22;64089;51.478;5.692;2023-04-02T03:57:36;6.00;99.90
42833;DHT22;64089;51.478;5.692;2023-04-02T04:02:52;6.00;99.90
42833;DHT22;64089;51.478;5.692;2023-04-02T04:07:51;6.00;99.90
42833;DHT22;64089;51.478;5.692;2023-04-02T04:10:23;6.00;99.90
42833;DHT22;64089;51.478;5.692;2023-04-02T04:12:51;6.00;99.90
42833;DHT22;64089;51.478;5.692;2023-04-02T04:20:49;6.00;99.90
42833;DHT22;64089;51.478;5.692;2023-04-02T04:23:30;6.00;99.90
42833;DHT22;64089;51.478;5.692;2023-04-02T04:34:13;5.90;99.90
42833;DHT22;64089;51.478;5.692;2023-04-02T04:36:47;5.90;99.90
42833;DHT22;64089;51.478;5.692;2023-04-02T04:39:38;5.70;99.90
42833;DHT22;64089;51.478;5.692;2023-04-02T04:42:05;5.70;99.90
42833;DHT22;64089;51.478;5.692;2023-04-02T04:44:41;5.70;99.90
42833;DHT22;64089;51.478;5.692;2023-04-02T04:47:19;5.70;99.90
42833;DHT22;64089;51.478;5.692;2023-04-02T04:49:55;5.70;99.90
42833;DHT22;64089;51.478;5.692;2023-04-02T04:52:29;5.70;99.90
42833;DHT22;64089;51.478;5.692;2023-04-02T04:54:58;5.60;99.90
42833;DHT22;64089;51.478;5.692;2023-04-02T04:57:37;5.60;99.90
42833;DHT22;64089;51.478;5.692;2023-04-02T05:00:12;5.60;99.90
42833;DHT22;64089;51.478;5.692;2023-04-02T05:02:53;5.60;99.90
42833;DHT22;64089;51.478;5.692;2023-04-02T05:05:28;5.60;99.90
42833;DHT22;64089;51.478;5.692;2023-04-02T05:07:58;5.60;99.90
42833;DHT22;64089;51.478;5.692;2023-04-02T05:13:20;5.50;99.90
42833;DHT22;64089;51.478;5.692;2023-04-02T05:19:11;5.40;99.90
42833;DHT22;64089;51.478;5.692;2023-04-02T05:21:42;5.30;99.90
42833;DHT22;64089;51.478;5.692;2023-04-02T05:27:47;5.30;99.90
42833;DHT22;64089;51.478;5.692;2023-04-02T05:30:31;5.30;99.90
42833;DHT22;64089;51.478;5.692;2023-04-02T05:33:03;5.30;99.90
42833;DHT22;64089;51.478;5.692;2023-04-02T05:35:41;5.30;99.90
42833;DHT22;64089;51.478;5.692;2023-04-02T05:38:36;5.30;99.90
42833;DHT22;64089;51.478;5.692;2023-04-02T05:41:25;5.30;99.90
42833;DHT22;64089;51.478;5.692;2023-04-02T05:44:06;5.30;99.90
42833;DHT22;64089;51.478;5.692;2023-04-02T05:46:44;5.30;99.90
42833;DHT22;64089;51.478;5.692;2023-04-02T05:49:28;5.30;99.90
42833;DHT22;64089;51.478;5.692;2023-04-02T05:52:00;5.40;99.90
42833;DHT22;64089;51.478;5.692;2023-04-02T05:54:37;5.40;99.90
42833;DHT22;64089;51.478;5.692;2023-04-02T05:57:09;5.40;99.90
42833;DHT22;64089;51.478;5.692;2023-04-02T05:59:57;5.30;99.90
42833;DHT22;64089;51.478;5.692;2023-04-02T06:02:31;5.30;99.90
42833;DHT22;64089;51.478;5.692;2023-04-02T06:05:18;5.30;99.90
42833;DHT22;64089;51.478;5.692;2023-04-02T06:10:20;5.20;99.90
42833;DHT22;64089;51.478;5.692;2023-04-02T06:13:03;5.20;99.90
42833;DHT22;64089;51.478;5.692;2023-04-02T06:15:32;5.20;99.90
42833;DHT22;64089;51.478;5.692;2023-04-02T06:18:19;5.20;99.90
42833;DHT22;64089;51.478;5.692;2023-04-02T06:20:47;5.20;99.90
42833;DHT22;64089;51.478;5.692;2023-04-02T06:31:48;5.20;99.90
42833;DHT22;64089;51.478;5.692;2023-04-02T06:34:25;5.20;99.90
42833;DHT22;64089;51.478;5.692;2023-04-02T06:36:58;5.20;99.90
42833;DHT22;64089;51.478;5.692;2023-04-02T06:39:26;5.20;99.90
42833;DHT22;64089;51.478;5.692;2023-04-02T06:42:05;5.10;99.90
42833;DHT22;64089;51.478;5.692;2023-04-02T06:44:34;5.20;99.90
42833;DHT22;64089;51.478;5.692;2023-04-02T06:52:52;5.20;99.90
42833;DHT22;64089;51.478;5.692;2023-04-02T06:57:45;5.10;99.90
42833;DHT22;64089;51.478;5.692;2023-04-02T07:00:41;5.10;99.90
42833;DHT22;64089;51.478;5.692;2023-04-02T07:05:39;5.10;99.90
42833;DHT22;64089;51.478;5.692;2023-04-02T07:08:05;5.00;99.90
42833;DHT22;64089;51.478;5.692;2023-04-02T07:10:31;5.10;99.90
42833;DHT22;64089;51.478;5.692;2023-04-02T07:12:56;5.20;99.90
42833;DHT22;64089;51.478;5.692;2023-04-02T07:15:22;5.20;99.90
42833;DHT22;64089;51.478;5.692;2023-04-02T07:17:49;5.30;99.90
42833;DHT22;64089;51.478;5.692;2023-04-02T07:20:33;5.30;99.90
42833;DHT22;64089;51.478;5.692;2023-04-02T07:23:02;5.30;99.90
42833;DHT22;64089;51.478;5.692;2023-04-02T07:25:28;5.40;99.90
42833;DHT22;64089;51.478;5.692;2023-04-02T07:27:54;5.40;99.90
42833;DHT22;64089;51.478;5.692;2023-04-02T07:30:23;5.40;99.90
42833;DHT22;64089;51.478;5.692;2023-04-02T07:32:48;5.50;99.90
42833;DHT22;64089;51.478;5.692;2023-04-02T07:35:14;5.50;99.90
42833;DHT22;64089;51.478;5.692;2023-04-02T07:37:39;5.50;99.90
42833;DHT22;64089;51.478;5.692;2023-04-02T07:40:17;5.80;99.90
42833;DHT22;64089;51.478;5.692;2023-04-02T07:42:43;6.00;99.90
42833;DHT22;64089;51.478;5.692;2023-04-02T07:45:09;5.80;99.90
42833;DHT22;64089;51.478;5.692;2023-04-02T07:47:35;5.70;99.90
42833;DHT22;64089;51.478;5.692;2023-04-02T07:50:01;5.60;99.90
42833;DHT22;64089;51.478;5.692;2023-04-02T07:52:26;5.60;99.90
42833;DHT22;64089;51.478;5.692;2023-04-02T07:54:52;5.50;99.90
42833;DHT22;64089;51.478;5.692;2023-04-02T07:57:17;5.60;99.90
42833;DHT22;64089;51.478;5.692;2023-04-02T07:59:43;5.70;99.90
42833;DHT22;64089;51.478;5.692;2023-04-02T08:02:19;5.70;99.90
42833;DHT22;64089;51.478;5.692;2023-04-02T08:04:47;5.60;99.90
42833;DHT22;64089;51.478;5.692;2023-04-02T08:07:13;5.60;99.90
42833;DHT22;64089;51.478;5.692;2023-04-02T08:09:38;5.60;99.90
42833;DHT22;64089;51.478;5.692;2023-04-02T08:12:04;5.60;99.90
42833;DHT22;64089;51.478;5.692;2023-04-02T08:14:29;5.40;99.90
42833;DHT22;64089;51.478;5.692;2023-04-02T08:16:55;5.30;99.90
42833;DHT22;64089;51.478;5.692;2023-04-02T08:19:21;5.20;99.90
42833;DHT22;64089;51.478;5.692;2023-04-02T08:21:48;5.10;99.90
42833;DHT22;64089;51.478;5.692;2023-04-02T08:24:16;5.20;99.90
42833;DHT22;64089;51.478;5.692;2023-04-02T08:26:44;5.30;99.90
42833;DHT22;64089;51.478;5.692;2023-04-02T08:29:10;5.30;99.90
42833;DHT22;64089;51.478;5.692;2023-04-02T08:31:36;5.40;99.90
42833;DHT22;64089;51.478;5.692;2023-04-02T08:34:02;5.50;99.90
42833;DHT22;64089;51.478;5.692;2023-04-02T08:36:35;5.50;99.90
42833;DHT22;64089;51.478;5.692;2023-04-02T08:39:03;5.50;99.90
42833;DHT22;64089;51.478;5.692;2023-04-02T08:41:35;5.60;99.90
42833;DHT22;64089;51.478;5.692;2023-04-02T08:47:02;5.70;99.90
42833;DHT22;64089;51.478;5.692;2023-04-02T08:50:11;5.70;99.90
42833;DHT22;64089;51.478;5.692;2023-04-02T08:52:32;5.80;99.90
42833;DHT22;64089;51.478;5.692;2023-04-02T08:55:00;5.70;99.90
42833;DHT22;64089;51.478;5.692;2023-04-02T08:57:29;5.60;99.90
42833;DHT22;64089;51.478;5.692;2023-04-02T09:00:04;5.70;99.90
42833;DHT22;64089;51.478;5.692;2023-04-02T09:02:39;5.60;99.90
42833;DHT22;64089;51.478;5.692;2023-04-02T09:05:08;5.50;99.90
42833;DHT22;64089;51.478;5.692;2023-04-02T09:07:40;5.60;99.90
42833;DHT22;64089;51.478;5.692;2023-04-02T09:10:14;5.70;99.90
42833;DHT22;64089;51.478;5.692;2023-04-02T09:12:41;5.80;99.90
42833;DHT22;64089;51.478;5.692;2023-04-02T09:15:37;5.90;99.90
42833;DHT22;64089;51.478;5.692;2023-04-02T09:18:13;5.90;99.90
42833;DHT22;64089;51.478;5.692;2023-04-02T09:20:39;6.00;99.90
42833;DHT22;64089;51.478;5.692;2023-04-02T09:23:07;6.20;99.90
42833;DHT22;64089;51.478;5.692;2023-04-02T09:25:49;6.20;99.90
42833;DHT22;64089;51.478;5.692;2023-04-02T09:28:16;6.10;99.90
42833;DHT22;64089;51.478;5.692;2023-04-02T09:33:48;6.20;99.90
42833;DHT22;64089;51.478;5.692;2023-04-02T09:39:19;6.40;99.90
42833;DHT22;64089;51.478;5.692;2023-04-02T09:41:46;6.40;99.90
42833;DHT22;64089;51.478;5.692;2023-04-02T09:44:21;6.30;99.90
42833;DHT22;64089;51.478;5.692;2023-04-02T09:46:59;6.10;99.90
42833;DHT22;64089;51.478;5.692;2023-04-02T09:52:25;6.20;99.90
42833;DHT22;64089;51.478;5.692;2023-04-02T09:57:48;6.20;99.90
42833;DHT22;64089;51.478;5.692;2023-04-02T10:00:24;6.20;99.90
42833;DHT22;64089;51.478;5.692;2023-04-02T10:03:13;6.30;99.90
42833;DHT22;64089;51.478;5.692;2023-04-02T10:05:43;6.40;99.90
42833;DHT22;64089;51.478;5.692;2023-04-02T10:10:45;6.30;99.90
42833;DHT22;64089;51.478;5.692;2023-04-02T10:18:43;6.50;99.90
42833;DHT22;64089;51.478;5.692;2023-04-02T10:21:17;6.60;99.90
42833;DHT22;64089;51.478;5.692;2023-04-02T10:23:44;6.40;99.90
42833;DHT22;64089;51.478;5.692;2023-04-02T10:29:20;6.40;99.90
42833;DHT22;64089;51.478;5.692;2023-04-02T10:32:04;6.20;99.90
42833;DHT22;64089;51.478;5.692;2023-04-02T10:39:48;6.40;99.90
42833;DHT22;64089;51.478;5.692;2023-04-02T10:42:21;6.40;99.90
42833;DHT22;64089;51.478;5.692;2023-04-02T10:45:26;6.50;99.90
42833;DHT22;64089;51.478;5.692;2023-04-02T10:48:24;6.60;99.90
42833;DHT22;64089;51.478;5.692;2023-04-02T10:54:23;6.80;99.90
42833;DHT22;64089;51.478;5.692;2023-04-02T10:56:59;6.70;99.90
42833;DHT22;64089;51.478;5.692;2023-04-02T10:59:29;6.70;99.90
42833;DHT22;64089;51.478;5.692;2023-04-02T11:01:58;6.70;99.90
42833;DHT22;64089;51.478;5.692;2023-04-02T11:04:33;7.00;99.90
42833;DHT22;64089;51.478;5.692;2023-04-02T11:07:05;7.20;99.90
42833;DHT22;64089;51.478;5.692;2023-04-02T11:09:37;7.20;99.90
42833;DHT22;64089;51.478;5.692;2023-04-02T11:12:06;7.00;99.90
42833;DHT22;64089;51.478;5.692;2023-04-02T11:14:33;6.90;99.90
42833;DHT22;64089;51.478;5.692;2023-04-02T11:17:00;6.90;99.90
42833;DHT22;64089;51.478;5.692;2023-04-02T11:19:34;7.10;99.90
42833;DHT22;64089;51.478;5.692;2023-04-02T11:22:22;7.40;99.90
42833;DHT22;64089;51.478;5.692;2023-04-02T11:24:52;7.40;99.90
42833;DHT22;64089;51.478;5.692;2023-04-02T11:27:34;7.50;99.90
42833;DHT22;64089;51.478;5.692;2023-04-02T11:30:20;7.60;99.90
42833;DHT22;64089;51.478;5.692;2023-04-02T11:32:47;7.60;99.90
42833;DHT22;64089;51.478;5.692;2023-04-02T11:40:52;7.50;99.90
42833;DHT22;64089;51.478;5.692;2023-04-02T11:46:05;7.80;99.90
42833;DHT22;64089;51.478;5.692;2023-04-02T11:48:40;7.70;99.90
42833;DHT22;64089;51.478;5.692;2023-04-02T11:53:51;7.50;99.90
42833;DHT22;64089;51.478;5.692;2023-04-02T12:02:10;7.20;99.90
42833;DHT22;64089;51.478;5.692;2023-04-02T12:05:05;7.00;99.90
42833;DHT22;64089;51.478;5.692;2023-04-02T12:07:51;7.00;99.90
42833;DHT22;64089;51.478;5.692;2023-04-02T12:10:25;6.90;99.90
42833;DHT22;64089;51.478;5.692;2023-04-02T12:12:52;6.80;99.90
42833;DHT22;64089;51.478;5.692;2023-04-02T12:18:08;7.30;99.90
42833;DHT22;64089;51.478;5.692;2023-04-02T12:20:35;7.30;99.90
42833;DHT22;64089;51.478;5.692;2023-04-02T12:23:02;7.20;99.90
42833;DHT22;64089;51.478;5.692;2023-04-02T12:25:33;7.30;99.90
42833;DHT22;64089;51.478;5.692;2023-04-02T12:30:32;7.20;99.90
42833;DHT22;64089;51.478;5.692;2023-04-02T12:33:32;7.20;99.90
42833;DHT22;64089;51.478;5.692;2023-04-02T12:38:49;7.10;99.90
42833;DHT22;64089;51.478;5.692;2023-04-02T12:41:24;7.10;99.90
42833;DHT22;64089;51.478;5.692;2023-04-02T12:44:04;7.10;99.90
42833;DHT22;64089;51.478;5.692;2023-04-02T12:46:32;7.00;99.90
42833;DHT22;64089;51.478;5.692;2023-04-02T12:49:42;7.00;99.90
42833;DHT22;64089;51.478;5.692;2023-04-02T12:52:11;6.90;99.90
42833;DHT22;64089;51.478;5.692;2023-04-02T12:54:46;7.00;99.90
42833;DHT22;64089;51.478;5.692;2023-04-02T12:57:31;7.20;99.90
42833;DHT22;64089;51.478;5.692;2023-04-02T12:59:58;7.00;99.90
42833;DHT22;64089;51.478;5.692;2023-04-02T13:02:30;7.00;99.90
42833;DHT22;64089;51.478;5.692;2023-04-02T13:04:58;7.30;99.90
42833;DHT22;64089;51.478;5.692;2023-04-02T13:07:27;7.60;99.90
42833;DHT22;64089;51.478;5.692;2023-04-02T13:10:03;7.90;99.90
42833;DHT22;64089;51.478;5.692;2023-04-02T13:12:33;8.40;99.90
42833;DHT22;64089;51.478;5.692;2023-04-02T13:15:01;8.70;99.90
42833;DHT22;64089;51.478;5.692;2023-04-02T13:21:03;8.80;99.90
42833;DHT22;64089;51.478;5.692;2023-04-02T13:25:55;8.30;99.90
42833;DHT22;64089;51.478;5.692;2023-04-02T13:28:21;8.20;99.90
42833;DHT22;64089;51.478;5.692;2023-04-02T13:30:47;8.10;99.90
42833;DHT22;64089;51.478;5.692;2023-04-02T13:33:13;7.80;99.90
42833;DHT22;64089;51.478;5.692;2023-04-02T13:35:39;7.70;99.90
42833;DHT22;64089;51.478;5.692;2023-04-02T13:38:05;7.80;99.90
42833;DHT22;64089;51.478;5.692;2023-04-02T13:40:32;8.10;99.90
42833;DHT22;64089;51.478;5.692;2023-04-02T13:42:58;8.40;99.90
42833;DHT22;64089;51.478;5.692;2023-04-02T13:45:26;8.70;99.90
42833;DHT22;64089;51.478;5.692;2023-04-02T13:47:53;8.60;99.90
42833;DHT22;64089;51.478;5.692;2023-04-02T13:50:21;8.70;99.90
42833;DHT22;64089;51.478;5.692;2023-04-02T13:52:50;9.10;99.90
42833;DHT22;64089;51.478;5.692;2023-04-02T13:55:16;9.20;99.90
42833;DHT22;64089;51.478;5.692;2023-04-02T13:57:44;9.20;99.90
42833;DHT22;64089;51.478;5.692;2023-04-02T14:00:10;9.40;99.90
42833;DHT22;64089;51.478;5.692;2023-04-02T14:02:39;9.40;99.90
42833;DHT22;64089;51.478;5.692;2023-04-02T14:13:46;9.10;99.90
42833;DHT22;64089;51.478;5.692;2023-04-02T14:16:19;9.20;99.90
42833;DHT22;64089;51.478;5.692;2023-04-02T14:22:07;9.50;99.90
42833;DHT22;64089;51.478;5.692;2023-04-02T14:24:44;9.60;99.90
42833;DHT22;64089;51.478;5.692;2023-04-02T14:29:57;9.50;99.90
42833;DHT22;64089;51.478;5.692;2023-04-02T14:35:23;9.90;99.90
42833;DHT22;64089;51.478;5.692;2023-04-02T14:38:04;9.70;99.90
42833;DHT22;64089;51.478;5.692;2023-04-02T14:41:08;9.70;99.90
42833;DHT22;64089;51.478;5.692;2023-04-02T14:43:55;10.00;99.90
42833;DHT22;64089;51.478;5.692;2023-04-02T14:46:27;10.10;99.90
42833;DHT22;64089;51.478;5.692;2023-04-02T14:48:56;9.80;99.90
42833;DHT22;64089;51.478;5.692;2023-04-02T14:57:05;9.90;99.90
42833;DHT22;64089;51.478;5.692;2023-04-02T15:02:51;9.80;99.90
42833;DHT22;64089;51.478;5.692;2023-04-02T15:05:27;10.20;99.90
42833;DHT22;64089;51.478;5.692;2023-04-02T15:08:46;10.30;99.90
42833;DHT22;64089;51.478;5.692;2023-04-02T15:11:00;10.80;99.90
42833;DHT22;64089;51.478;5.692;2023-04-02T15:16:13;10.90;99.40
42833;DHT22;64089;51.478;5.692;2023-04-02T15:18:40;11.00;99.90
42833;DHT22;64089;51.478;5.692;2023-04-02T15:26:34;11.20;99.20
42833;DHT22;64089;51.478;5.692;2023-04-02T15:31:36;10.90;98.70
42833;DHT22;64089;51.478;5.692;2023-04-02T15:34:29;10.30;99.20
42833;DHT22;64089;51.478;5.692;2023-04-02T15:44:26;10.70;99.90
42833;DHT22;64089;51.478;5.692;2023-04-02T15:49:41;11.00;98.80
42833;DHT22;64089;51.478;5.692;2023-04-02T15:52:14;10.90;99.00
42833;DHT22;64089;51.478;5.692;2023-04-02T16:05:45;10.30;99.20
42833;DHT22;64089;51.478;5.692;2023-04-02T16:10:42;10.30;99.00
42833;DHT22;64089;51.478;5.692;2023-04-02T16:13:29;10.70;99.90
42833;DHT22;64089;51.478;5.692;2023-04-02T16:16:14;11.00;99.30
42833;DHT22;64089;51.478;5.692;2023-04-02T16:21:16;10.90;99.90
42833;DHT22;64089;51.478;5.692;2023-04-02T16:23:43;10.60;99.30
42833;DHT22;64089;51.478;5.692;2023-04-02T16:31:44;10.40;99.60
42833;DHT22;64089;51.478;5.692;2023-04-02T16:45:49;9.70;99.70
42833;DHT22;64089;51.478;5.692;2023-04-02T16:54:12;9.50;99.70
42833;DHT22;64089;51.478;5.692;2023-04-02T16:56:20;9.80;99.90
42833;DHT22;64089;51.478;5.692;2023-04-02T16:59:25;9.80;99.30
42833;DHT22;64089;51.478;5.692;2023-04-02T17:02:01;9.80;99.40
42833;DHT22;64089;51.478;5.692;2023-04-02T17:07:34;9.60;99.30
42833;DHT22;64089;51.478;5.692;2023-04-02T17:11:10;9.70;99.70
42833;DHT22;64089;51.478;5.692;2023-04-02T17:13:30;9.80;99.40
42833;DHT22;64089;51.478;5.692;2023-04-02T17:18:51;9.60;99.50
42833;DHT22;64089;51.478;5.692;2023-04-02T17:21:24;9.60;99.70
42833;DHT22;64089;51.478;5.692;2023-04-02T17:26:59;9.70;99.90
42833;DHT22;64089;51.478;5.692;2023-04-02T17:29:43;9.60;99.90
42833;DHT22;64089;51.478;5.692;2023-04-02T17:32:21;9.50;99.90
42833;DHT22;64089;51.478;5.692;2023-04-02T17:34:48;9.30;99.90
42833;DHT22;64089;51.478;5.692;2023-04-02T17:37:34;9.10;99.90
42833;DHT22;64089;51.478;5.692;2023-04-02T17:46:15;8.90;99.90
42833;DHT22;64089;51.478;5.692;2023-04-02T17:48:46;8.80;99.90
42833;DHT22;64089;51.478;5.692;2023-04-02T17:51:38;8.70;99.90
42833;DHT22;64089;51.478;5.692;2023-04-02T17:55:08;8.70;99.90
42833;DHT22;64089;51.478;5.692;2023-04-02T18:02:58;8.60;99.90
42833;DHT22;64089;51.478;5.692;2023-04-02T18:05:44;8.60;99.90
42833;DHT22;64089;51.478;5.692;2023-04-02T18:08:21;8.60;99.90
42833;DHT22;64089;51.478;5.692;2023-04-02T18:13:41;8.40;99.90
42833;DHT22;64089;51.478;5.692;2023-04-02T18:27:23;7.70;99.90
42833;DHT22;64089;51.478;5.692;2023-04-02T18:35:19;7.50;99.90
42833;DHT22;64089;51.478;5.692;2023-04-02T18:38:17;7.60;99.90
42833;DHT22;64089;51.478;5.692;2023-04-02T18:46:38;7.30;99.90
42833;DHT22;64089;51.478;5.692;2023-04-02T18:52:16;7.20;99.90
42833;DHT22;64089;51.478;5.692;2023-04-02T18:54:48;7.50;99.90
42833;DHT22;64089;51.478;5.692;2023-04-02T18:57:36;7.60;99.90
42833;DHT22;64089;51.478;5.692;2023-04-02T19:00:24;7.60;99.90
42833;DHT22;64089;51.478;5.692;2023-04-02T19:08:19;7.00;99.90
42833;DHT22;64089;51.478;5.692;2023-04-02T19:10:51;6.80;99.90
42833;DHT22;64089;51.478;5.692;2023-04-02T19:13:18;6.50;99.90
42833;DHT22;64089;51.478;5.692;2023-04-02T19:19:04;6.40;99.90
42833;DHT22;64089;51.478;5.692;2023-04-02T19:27:38;6.10;99.90
42833;DHT22;64089;51.478;5.692;2023-04-02T19:35:56;5.80;99.90
42833;DHT22;64089;51.478;5.692;2023-04-02T19:43:57;5.70;99.90
42833;DHT22;64089;51.478;5.692;2023-04-02T19:46:24;5.60;99.90
42833;DHT22;64089;51.478;5.692;2023-04-02T19:49:04;5.60;99.90
42833;DHT22;64089;51.478;5.692;2023-04-02T19:51:32;5.50;99.90
42833;DHT22;64089;51.478;5.692;2023-04-02T19:53:58;5.40;99.90
42833;DHT22;64089;51.478;5.692;2023-04-02T19:56:24;5.40;99.90
42833;DHT22;64089;51.478;5.692;2023-04-02T19:58:51;5.40;99.90
42833;DHT22;64089;51.478;5.692;2023-04-02T20:01:16;5.30;99.90
42833;DHT22;64089;51.478;5.692;2023-04-02T20:03:42;5.20;99.90
42833;DHT22;64089;51.478;5.692;2023-04-02T20:06:08;5.20;99.90
42833;DHT22;64089;51.478;5.692;2023-04-02T20:08:33;5.10;99.90
42833;DHT22;64089;51.478;5.692;2023-04-02T20:11:01;5.10;99.90
42833;DHT22;64089;51.478;5.692;2023-04-02T20:13:27;5.00;99.90
42833;DHT22;64089;51.478;5.692;2023-04-02T20:15:53;5.00;99.90
42833;DHT22;64089;51.478;5.692;2023-04-02T20:18:18;4.90;99.90
42833;DHT22;64089;51.478;5.692;2023-04-02T20:20:48;4.90;99.90
42833;DHT22;64089;51.478;5.692;2023-04-02T20:23:14;4.80;99.90
42833;DHT22;64089;51.478;5.692;2023-04-02T20:25:48;4.70;99.90
42833;DHT22;64089;51.478;5.692;2023-04-02T20:28:26;4.70;99.90
42833;DHT22;64089;51.478;5.692;2023-04-02T20:30:52;4.70;99.90
42833;DHT22;64089;51.478;5.692;2023-04-02T20:33:20;4.70;99.90
42833;DHT22;64089;51.478;5.692;2023-04-02T20:35:47;4.60;99.90
42833;DHT22;64089;51.478;5.692;2023-04-02T20:38:14;4.60;99.90
42833;DHT22;64089;51.478;5.692;2023-04-02T20:40:40;4.50;99.90
42833;DHT22;64089;51.478;5.692;2023-04-02T20:43:07;4.50;99.90
42833;DHT22;64089;51.478;5.692;2023-04-02T20:45:34;4.50;99.90
42833;DHT22;64089;51.478;5.692;2023-04-02T20:48:00;4.40;99.90
42833;DHT22;64089;51.478;5.692;2023-04-02T20:50:26;4.40;99.90
42833;DHT22;64089;51.478;5.692;2023-04-02T20:52:51;4.30;99.90
42833;DHT22;64089;51.478;5.692;2023-04-02T20:55:17;4.20;99.90
42833;DHT22;64089;51.478;5.692;2023-04-02T20:57:43;4.10;99.90
42833;DHT22;64089;51.478;5.692;2023-04-02T21:00:09;4.00;99.90
42833;DHT22;64089;51.478;5.692;2023-04-02T21:02:36;4.00;99.90
42833;DHT22;64089;51.478;5.692;2023-04-02T21:05:01;4.00;99.90
42833;DHT22;64089;51.478;5.692;2023-04-02T21:07:27;4.00;99.90
42833;DHT22;64089;51.478;5.692;2023-04-02T21:09:53;4.00;99.90
42833;DHT22;64089;51.478;5.692;2023-04-02T21:12:18;4.00;99.90
42833;DHT22;64089;51.478;5.692;2023-04-02T21:14:44;3.90;99.90
42833;DHT22;64089;51.478;5.692;2023-04-02T21:17:10;3.80;99.90
42833;DHT22;64089;51.478;5.692;2023-04-02T21:19:36;3.80;99.90
42833;DHT22;64089;51.478;5.692;2023-04-02T21:22:02;3.70;99.90
42833;DHT22;64089;51.478;5.692;2023-04-02T21:24:28;3.70;99.90
42833;DHT22;64089;51.478;5.692;2023-04-02T21:26:53;3.70;99.90
42833;DHT22;64089;51.478;5.692;2023-04-02T21:29:19;3.70;99.90
42833;DHT22;64089;51.478;5.692;2023-04-02T21:31:45;3.60;99.90
42833;DHT22;64089;51.478;5.692;2023-04-02T21:34:15;3.70;99.90
42833;DHT22;64089;51.478;5.692;2023-04-02T21:36:45;3.60;99.90
42833;DHT22;64089;51.478;5.692;2023-04-02T21:39:16;3.50;99.90
42833;DHT22;64089;51.478;5.692;2023-04-02T21:41:43;3.50;99.90
42833;DHT22;64089;51.478;5.692;2023-04-02T21:44:15;3.60;99.90
42833;DHT22;64089;51.478;5.692;2023-04-02T21:46:42;3.50;99.90
42833;DHT22;64089;51.478;5.692;2023-04-02T21:49:09;3.40;99.90
42833;DHT22;64089;51.478;5.692;2023-04-02T21:51:37;3.30;99.90
42833;DHT22;64089;51.478;5.692;2023-04-02T21:54:02;3.30;99.90
42833;DHT22;64089;51.478;5.692;2023-04-02T21:56:30;3.30;99.90
42833;DHT22;64089;51.478;5.692;2023-04-02T21:58:56;3.20;99.90
42833;DHT22;64089;51.478;5.692;2023-04-02T22:01:24;3.20;99.90
42833;DHT22;64089;51.478;5.692;2023-04-02T22:03:52;3.30;99.90